sensor_id;sensor_type;location;lat;lon;timestamp;P1;durP1;ratioP1;P2;durP2;ratioP2
28523;SDS011;15734;50.904;6.922;2023-12-04T00:02:00;29.33;;;12.35;;
28523;SDS011;15734;50.904;6.922;2023-12-04T00:04:25;30.83;;;13.82;;
28523;SDS011;15734;50.904;6.922;2023-12-04T00:06:51;32.92;;;13.07;;
28523;SDS011;15734;50.904;6.922;2023-12-04T00:09:16;28.45;;;11.30;;
28523;SDS011;15734;50.904;6.922;2023-12-04T00:11:42;29.95;;;13.05;;
28523;SDS011;15734;50.904;6.922;2023-12-04T00:14:07;29.02;;;12.68;;
28523;SDS011;15734;50.904;6.922;2023-12-04T00:16:36;25.48;;;12.65;;
28523;SDS011;15734;50.904;6.922;2023-12-04T00:19:01;27.77;;;13.05;;
28523;SDS011;15734;50.904;6.922;2023-12-04T00:21:27;27.30;;;13.07;;
28523;SDS011;15734;50.904;6.922;2023-12-04T00:23:53;28.98;;;12.70;;
28523;SDS011;15734;50.904;6.922;2023-12-04T00:26:18;27.45;;;12.45;;
28523;SDS011;15734;50.904;6.922;2023-12-04T00:28:44;24.48;;;11.82;;
28523;SDS011;15734;50.904;6.922;2023-12-04T00:31:09;29.33;;;12.32;;
28523;SDS011;15734;50.904;6.922;2023-12-04T00:33:35;27.80;;;12.88;;
28523;SDS011;15734;50.904;6.922;2023-12-04T00:36:01;25.92;;;11.40;;
28523;SDS011;15734;50.904;6.922;2023-12-04T00:38:27;27.38;;;12.75;;
28523;SDS011;15734;50.904;6.922;2023-12-04T00:40:52;29.83;;;12.65;;
28523;SDS011;15734;50.904;6.922;2023-12-04T00:43:18;29.25;;;12.73;;
28523;SDS011;15734;50.904;6.922;2023-12-04T00:45:44;34.22;;;14.00;;
28523;SDS011;15734;50.904;6.922;2023-12-04T00:48:09;29.33;;;13.07;;
28523;SDS011;15734;50.904;6.922;2023-12-04T00:50:35;25.05;;;11.77;;
28523;SDS011;15734;50.904;6.922;2023-12-04T00:53:00;28.73;;;12.40;;
28523;SDS011;15734;50.904;6.922;2023-12-04T00:55:26;31.15;;;11.95;;
28523;SDS011;15734;50.904;6.922;2023-12-04T00:57:52;27.42;;;11.07;;
28523;SDS011;15734;50.904;6.922;2023-12-04T01:00:17;27.65;;;12.35;;
28523;SDS011;15734;50.904;6.922;2023-12-04T01:02:43;28.30;;;12.55;;
28523;SDS011;15734;50.904;6.922;2023-12-04T01:05:08;22.88;;;11.25;;
28523;SDS011;15734;50.904;6.922;2023-12-04T01:07:34;27.70;;;12.07;;
28523;SDS011;15734;50.904;6.922;2023-12-04T01:09:59;28.08;;;12.43;;
28523;SDS011;15734;50.904;6.922;2023-12-04T01:12:25;29.45;;;11.82;;
28523;SDS011;15734;50.904;6.922;2023-12-04T01:14:51;29.25;;;11.68;;
28523;SDS011;15734;50.904;6.922;2023-12-04T01:17:17;26.73;;;12.15;;
28523;SDS011;15734;50.904;6.922;2023-12-04T01:19:42;22.70;;;11.52;;
28523;SDS011;15734;50.904;6.922;2023-12-04T01:22:08;30.23;;;12.23;;
28523;SDS011;15734;50.904;6.922;2023-12-04T01:24:33;27.30;;;11.68;;
28523;SDS011;15734;50.904;6.922;2023-12-04T01:26:59;27.52;;;10.98;;
28523;SDS011;15734;50.904;6.922;2023-12-04T01:29:24;24.98;;;11.45;;
28523;SDS011;15734;50.904;6.922;2023-12-04T01:31:50;22.67;;;11.20;;
28523;SDS011;15734;50.904;6.922;2023-12-04T01:34:15;25.17;;;11.45;;
28523;SDS011;15734;50.904;6.922;2023-12-04T01:36:41;26.73;;;10.82;;
28523;SDS011;15734;50.904;6.922;2023-12-04T01:39:07;27.98;;;11.77;;
28523;SDS011;15734;50.904;6.922;2023-12-04T01:41:32;25.02;;;11.18;;
28523;SDS011;15734;50.904;6.922;2023-12-04T01:43:58;26.23;;;10.90;;
28523;SDS011;15734;50.904;6.922;2023-12-04T01:46:23;23.58;;;10.85;;
28523;SDS011;15734;50.904;6.922;2023-12-04T01:48:49;27.55;;;12.27;;
28523;SDS011;15734;50.904;6.922;2023-12-04T01:51:15;27.10;;;11.13;;
28523;SDS011;15734;50.904;6.922;2023-12-04T01:53:43;28.55;;;11.88;;
28523;SDS011;15734;50.904;6.922;2023-12-04T01:56:09;27.95;;;12.65;;
28523;SDS011;15734;50.904;6.922;2023-12-04T01:58:35;28.15;;;12.90;;
28523;SDS011;15734;50.904;6.922;2023-12-04T02:01:02;27.50;;;11.73;;
28523;SDS011;15734;50.904;6.922;2023-12-04T02:03:29;28.25;;;11.68;;
28523;SDS011;15734;50.904;6.922;2023-12-04T02:05:55;28.17;;;12.40;;
28523;SDS011;15734;50.904;6.922;2023-12-04T02:08:24;24.88;;;11.43;;
28523;SDS011;15734;50.904;6.922;2023-12-04T02:10:50;25.95;;;11.73;;
28523;SDS011;15734;50.904;6.922;2023-12-04T02:13:16;23.30;;;11.32;;
28523;SDS011;15734;50.904;6.922;2023-12-04T02:15:41;27.13;;;12.18;;
28523;SDS011;15734;50.904;6.922;2023-12-04T02:18:07;25.05;;;11.13;;
28523;SDS011;15734;50.904;6.922;2023-12-04T02:20:33;23.42;;;10.68;;
28523;SDS011;15734;50.904;6.922;2023-12-04T02:23:00;25.02;;;10.60;;
28523;SDS011;15734;50.904;6.922;2023-12-04T02:25:27;26.65;;;11.43;;
28523;SDS011;15734;50.904;6.922;2023-12-04T02:27:53;23.33;;;11.15;;
28523;SDS011;15734;50.904;6.922;2023-12-04T02:30:21;24.70;;;11.60;;
28523;SDS011;15734;50.904;6.922;2023-12-04T02:32:49;25.02;;;10.80;;
28523;SDS011;15734;50.904;6.922;2023-12-04T02:35:19;25.85;;;10.98;;
28523;SDS011;15734;50.904;6.922;2023-12-04T02:37:47;24.13;;;10.23;;
28523;SDS011;15734;50.904;6.922;2023-12-04T02:40:13;23.13;;;10.80;;
28523;SDS011;15734;50.904;6.922;2023-12-04T02:42:40;24.95;;;11.35;;
28523;SDS011;15734;50.904;6.922;2023-12-04T02:45:05;24.30;;;11.05;;
28523;SDS011;15734;50.904;6.922;2023-12-04T02:47:31;28.48;;;11.15;;
28523;SDS011;15734;50.904;6.922;2023-12-04T02:49:57;21.48;;;9.45;;
28523;SDS011;15734;50.904;6.922;2023-12-04T02:52:22;23.25;;;10.68;;
28523;SDS011;15734;50.904;6.922;2023-12-04T02:54:48;21.23;;;10.35;;
28523;SDS011;15734;50.904;6.922;2023-12-04T02:57:13;29.33;;;11.05;;
28523;SDS011;15734;50.904;6.922;2023-12-04T02:59:39;22.42;;;10.38;;
28523;SDS011;15734;50.904;6.922;2023-12-04T03:02:05;22.92;;;9.63;;
28523;SDS011;15734;50.904;6.922;2023-12-04T03:04:30;27.20;;;10.02;;
28523;SDS011;15734;50.904;6.922;2023-12-04T03:06:56;20.00;;;9.70;;
28523;SDS011;15734;50.904;6.922;2023-12-04T03:09:22;22.80;;;9.95;;
28523;SDS011;15734;50.904;6.922;2023-12-04T03:11:48;22.13;;;9.98;;
28523;SDS011;15734;50.904;6.922;2023-12-04T03:14:13;23.13;;;9.95;;
28523;SDS011;15734;50.904;6.922;2023-12-04T03:16:39;25.13;;;11.57;;
28523;SDS011;15734;50.904;6.922;2023-12-04T03:19:05;21.23;;;10.25;;
28523;SDS011;15734;50.904;6.922;2023-12-04T03:21:30;20.95;;;9.93;;
28523;SDS011;15734;50.904;6.922;2023-12-04T03:23:56;29.90;;;11.90;;
28523;SDS011;15734;50.904;6.922;2023-12-04T03:26:22;23.88;;;10.68;;
28523;SDS011;15734;50.904;6.922;2023-12-04T03:28:47;23.52;;;10.55;;
28523;SDS011;15734;50.904;6.922;2023-12-04T03:31:13;23.20;;;11.10;;
28523;SDS011;15734;50.904;6.922;2023-12-04T03:33:38;20.05;;;9.38;;
28523;SDS011;15734;50.904;6.922;2023-12-04T03:36:04;25.25;;;11.05;;
28523;SDS011;15734;50.904;6.922;2023-12-04T03:38:30;25.08;;;10.75;;
28523;SDS011;15734;50.904;6.922;2023-12-04T03:40:55;24.10;;;11.00;;
28523;SDS011;15734;50.904;6.922;2023-12-04T03:43:21;22.92;;;10.13;;
28523;SDS011;15734;50.904;6.922;2023-12-04T03:45:46;26.58;;;11.02;;
28523;SDS011;15734;50.904;6.922;2023-12-04T03:48:12;23.48;;;10.07;;
28523;SDS011;15734;50.904;6.922;2023-12-04T03:50:38;29.30;;;11.60;;
28523;SDS011;15734;50.904;6.922;2023-12-04T03:53:03;21.60;;;10.32;;
28523;SDS011;15734;50.904;6.922;2023-12-04T03:55:29;24.08;;;11.25;;
28523;SDS011;15734;50.904;6.922;2023-12-04T03:57:54;24.20;;;10.15;;
28523;SDS011;15734;50.904;6.922;2023-12-04T04:00:20;22.85;;;10.05;;
28523;SDS011;15734;50.904;6.922;2023-12-04T04:02:46;22.88;;;9.88;;
28523;SDS011;15734;50.904;6.922;2023-12-04T04:05:11;23.52;;;10.45;;
28523;SDS011;15734;50.904;6.922;2023-12-04T04:07:37;26.20;;;11.45;;
28523;SDS011;15734;50.904;6.922;2023-12-04T04:10:02;23.35;;;10.50;;
28523;SDS011;15734;50.904;6.922;2023-12-04T04:12:31;24.98;;;11.20;;
28523;SDS011;15734;50.904;6.922;2023-12-04T04:14:57;21.63;;;9.95;;
28523;SDS011;15734;50.904;6.922;2023-12-04T04:17:22;23.63;;;12.35;;
28523;SDS011;15734;50.904;6.922;2023-12-04T04:19:51;23.73;;;10.00;;
28523;SDS011;15734;50.904;6.922;2023-12-04T04:22:17;22.20;;;10.68;;
28523;SDS011;15734;50.904;6.922;2023-12-04T04:24:42;25.08;;;10.88;;
28523;SDS011;15734;50.904;6.922;2023-12-04T04:27:08;28.02;;;11.13;;
28523;SDS011;15734;50.904;6.922;2023-12-04T04:29:33;24.67;;;10.82;;
28523;SDS011;15734;50.904;6.922;2023-12-04T04:31:59;25.10;;;11.32;;
28523;SDS011;15734;50.904;6.922;2023-12-04T04:34:24;25.17;;;11.35;;
28523;SDS011;15734;50.904;6.922;2023-12-04T04:36:50;27.50;;;11.65;;
28523;SDS011;15734;50.904;6.922;2023-12-04T04:39:15;22.58;;;10.50;;
28523;SDS011;15734;50.904;6.922;2023-12-04T04:41:41;26.30;;;11.13;;
28523;SDS011;15734;50.904;6.922;2023-12-04T04:44:06;27.23;;;11.80;;
28523;SDS011;15734;50.904;6.922;2023-12-04T04:46:32;19.45;;;9.85;;
28523;SDS011;15734;50.904;6.922;2023-12-04T04:48:57;22.52;;;10.43;;
28523;SDS011;15734;50.904;6.922;2023-12-04T04:51:23;24.52;;;11.95;;
28523;SDS011;15734;50.904;6.922;2023-12-04T04:53:50;28.35;;;10.82;;
28523;SDS011;15734;50.904;6.922;2023-12-04T04:56:15;21.55;;;11.57;;
28523;SDS011;15734;50.904;6.922;2023-12-04T04:58:42;21.17;;;10.63;;
28523;SDS011;15734;50.904;6.922;2023-12-04T05:01:07;22.55;;;10.70;;
28523;SDS011;15734;50.904;6.922;2023-12-04T05:03:33;24.35;;;11.63;;
28523;SDS011;15734;50.904;6.922;2023-12-04T05:05:59;22.65;;;10.27;;
28523;SDS011;15734;50.904;6.922;2023-12-04T05:08:25;21.95;;;11.27;;
28523;SDS011;15734;50.904;6.922;2023-12-04T05:10:51;23.83;;;10.85;;
28523;SDS011;15734;50.904;6.922;2023-12-04T05:13:16;25.70;;;11.00;;
28523;SDS011;15734;50.904;6.922;2023-12-04T05:15:42;24.33;;;10.50;;
28523;SDS011;15734;50.904;6.922;2023-12-04T05:18:07;25.80;;;11.15;;
28523;SDS011;15734;50.904;6.922;2023-12-04T05:20:33;26.63;;;12.32;;
28523;SDS011;15734;50.904;6.922;2023-12-04T05:22:58;25.02;;;12.23;;
28523;SDS011;15734;50.904;6.922;2023-12-04T05:25:24;24.88;;;11.77;;
28523;SDS011;15734;50.904;6.922;2023-12-04T05:27:49;26.35;;;11.35;;
28523;SDS011;15734;50.904;6.922;2023-12-04T05:30:15;29.20;;;11.27;;
28523;SDS011;15734;50.904;6.922;2023-12-04T05:32:41;24.85;;;11.77;;
28523;SDS011;15734;50.904;6.922;2023-12-04T05:35:06;26.48;;;11.75;;
28523;SDS011;15734;50.904;6.922;2023-12-04T05:37:32;21.58;;;11.85;;
28523;SDS011;15734;50.904;6.922;2023-12-04T05:39:57;27.00;;;12.48;;
28523;SDS011;15734;50.904;6.922;2023-12-04T05:42:23;26.40;;;11.63;;
28523;SDS011;15734;50.904;6.922;2023-12-04T05:44:48;26.80;;;12.18;;
28523;SDS011;15734;50.904;6.922;2023-12-04T05:47:14;26.88;;;12.48;;
28523;SDS011;15734;50.904;6.922;2023-12-04T05:49:40;31.88;;;13.32;;
28523;SDS011;15734;50.904;6.922;2023-12-04T05:52:06;22.02;;;12.15;;
28523;SDS011;15734;50.904;6.922;2023-12-04T05:54:31;28.25;;;12.52;;
28523;SDS011;15734;50.904;6.922;2023-12-04T05:56:57;28.90;;;11.93;;
28523;SDS011;15734;50.904;6.922;2023-12-04T05:59:23;29.58;;;13.18;;
28523;SDS011;15734;50.904;6.922;2023-12-04T06:01:48;28.90;;;12.68;;
28523;SDS011;15734;50.904;6.922;2023-12-04T06:04:14;28.08;;;13.10;;
28523;SDS011;15734;50.904;6.922;2023-12-04T06:06:39;28.98;;;13.13;;
28523;SDS011;15734;50.904;6.922;2023-12-04T06:09:05;30.42;;;13.80;;
28523;SDS011;15734;50.904;6.922;2023-12-04T06:11:31;27.55;;;12.93;;
28523;SDS011;15734;50.904;6.922;2023-12-04T06:13:56;27.75;;;12.32;;
28523;SDS011;15734;50.904;6.922;2023-12-04T06:16:22;27.27;;;12.05;;
28523;SDS011;15734;50.904;6.922;2023-12-04T06:18:47;28.55;;;12.88;;
28523;SDS011;15734;50.904;6.922;2023-12-04T06:21:13;29.33;;;13.60;;
28523;SDS011;15734;50.904;6.922;2023-12-04T06:23:39;30.45;;;13.13;;
28523;SDS011;15734;50.904;6.922;2023-12-04T06:26:05;25.88;;;13.02;;
28523;SDS011;15734;50.904;6.922;2023-12-04T06:28:31;28.05;;;13.35;;
28523;SDS011;15734;50.904;6.922;2023-12-04T06:30:57;26.35;;;12.85;;
28523;SDS011;15734;50.904;6.922;2023-12-04T06:33:23;31.15;;;13.10;;
28523;SDS011;15734;50.904;6.922;2023-12-04T06:35:49;28.42;;;12.65;;
28523;SDS011;15734;50.904;6.922;2023-12-04T06:38:15;31.30;;;12.95;;
28523;SDS011;15734;50.904;6.922;2023-12-04T06:40:43;29.55;;;12.45;;
28523;SDS011;15734;50.904;6.922;2023-12-04T06:43:09;28.88;;;11.75;;
28523;SDS011;15734;50.904;6.922;2023-12-04T06:45:35;28.70;;;13.48;;
28523;SDS011;15734;50.904;6.922;2023-12-04T06:48:01;29.02;;;13.75;;
28523;SDS011;15734;50.904;6.922;2023-12-04T06:50:27;31.67;;;14.10;;
28523;SDS011;15734;50.904;6.922;2023-12-04T06:52:52;27.92;;;13.30;;
28523;SDS011;15734;50.904;6.922;2023-12-04T06:55:18;29.77;;;14.25;;
28523;SDS011;15734;50.904;6.922;2023-12-04T06:57:44;29.38;;;14.00;;
28523;SDS011;15734;50.904;6.922;2023-12-04T07:00:09;32.85;;;13.70;;
28523;SDS011;15734;50.904;6.922;2023-12-04T07:02:37;33.58;;;14.10;;
28523;SDS011;15734;50.904;6.922;2023-12-04T07:05:03;29.08;;;14.95;;
28523;SDS011;15734;50.904;6.922;2023-12-04T07:07:29;29.63;;;14.55;;
28523;SDS011;15734;50.904;6.922;2023-12-04T07:09:54;29.13;;;13.73;;
28523;SDS011;15734;50.904;6.922;2023-12-04T07:12:20;31.58;;;15.25;;
28523;SDS011;15734;50.904;6.922;2023-12-04T07:14:46;31.27;;;13.73;;
28523;SDS011;15734;50.904;6.922;2023-12-04T07:17:12;34.35;;;14.70;;
28523;SDS011;15734;50.904;6.922;2023-12-04T07:19:37;32.22;;;13.98;;
28523;SDS011;15734;50.904;6.922;2023-12-04T07:22:03;29.27;;;13.52;;
28523;SDS011;15734;50.904;6.922;2023-12-04T07:24:29;38.40;;;16.10;;
28523;SDS011;15734;50.904;6.922;2023-12-04T07:26:54;33.53;;;14.43;;
28523;SDS011;15734;50.904;6.922;2023-12-04T07:29:20;29.30;;;14.43;;
28523;SDS011;15734;50.904;6.922;2023-12-04T07:31:45;29.17;;;13.20;;
28523;SDS011;15734;50.904;6.922;2023-12-04T07:34:11;30.73;;;14.80;;
28523;SDS011;15734;50.904;6.922;2023-12-04T07:36:36;30.88;;;14.70;;
28523;SDS011;15734;50.904;6.922;2023-12-04T07:39:02;29.02;;;14.25;;
28523;SDS011;15734;50.904;6.922;2023-12-04T07:41:31;29.67;;;13.30;;
28523;SDS011;15734;50.904;6.922;2023-12-04T07:43:56;29.88;;;13.70;;
28523;SDS011;15734;50.904;6.922;2023-12-04T07:46:22;29.20;;;14.10;;
28523;SDS011;15734;50.904;6.922;2023-12-04T07:48:47;36.28;;;14.93;;
28523;SDS011;15734;50.904;6.922;2023-12-04T07:51:13;31.13;;;15.23;;
28523;SDS011;15734;50.904;6.922;2023-12-04T07:53:38;30.25;;;13.63;;
28523;SDS011;15734;50.904;6.922;2023-12-04T07:56:04;31.52;;;14.15;;
28523;SDS011;15734;50.904;6.922;2023-12-04T07:58:30;30.13;;;13.82;;
28523;SDS011;15734;50.904;6.922;2023-12-04T08:00:56;29.08;;;12.98;;
28523;SDS011;15734;50.904;6.922;2023-12-04T08:03:22;35.85;;;14.15;;
28523;SDS011;15734;50.904;6.922;2023-12-04T08:05:49;30.58;;;13.02;;
28523;SDS011;15734;50.904;6.922;2023-12-04T08:08:15;32.15;;;14.32;;
28523;SDS011;15734;50.904;6.922;2023-12-04T08:10:41;28.60;;;13.40;;
28523;SDS011;15734;50.904;6.922;2023-12-04T08:13:06;35.08;;;13.27;;
28523;SDS011;15734;50.904;6.922;2023-12-04T08:15:32;33.97;;;14.18;;
28523;SDS011;15734;50.904;6.922;2023-12-04T08:17:57;30.88;;;14.15;;
28523;SDS011;15734;50.904;6.922;2023-12-04T08:20:23;27.90;;;13.43;;
28523;SDS011;15734;50.904;6.922;2023-12-04T08:22:49;27.30;;;13.18;;
28523;SDS011;15734;50.904;6.922;2023-12-04T08:25:14;32.78;;;13.52;;
28523;SDS011;15734;50.904;6.922;2023-12-04T08:27:40;29.38;;;14.00;;
28523;SDS011;15734;50.904;6.922;2023-12-04T08:30:05;27.98;;;13.60;;
28523;SDS011;15734;50.904;6.922;2023-12-04T08:32:31;30.77;;;13.10;;
28523;SDS011;15734;50.904;6.922;2023-12-04T08:34:57;28.65;;;12.43;;
28523;SDS011;15734;50.904;6.922;2023-12-04T08:37:23;32.78;;;13.55;;
28523;SDS011;15734;50.904;6.922;2023-12-04T08:39:48;27.52;;;12.60;;
28523;SDS011;15734;50.904;6.922;2023-12-04T08:42:14;30.05;;;13.10;;
28523;SDS011;15734;50.904;6.922;2023-12-04T08:44:39;31.23;;;13.25;;
28523;SDS011;15734;50.904;6.922;2023-12-04T08:47:05;37.13;;;12.70;;
28523;SDS011;15734;50.904;6.922;2023-12-04T08:49:31;31.00;;;12.60;;
28523;SDS011;15734;50.904;6.922;2023-12-04T08:51:57;28.83;;;13.20;;
28523;SDS011;15734;50.904;6.922;2023-12-04T08:54:23;30.23;;;13.15;;
28523;SDS011;15734;50.904;6.922;2023-12-04T08:56:49;26.73;;;13.18;;
28523;SDS011;15734;50.904;6.922;2023-12-04T08:59:15;31.10;;;13.57;;
28523;SDS011;15734;50.904;6.922;2023-12-04T09:01:41;29.50;;;12.65;;
28523;SDS011;15734;50.904;6.922;2023-12-04T09:04:08;31.23;;;14.23;;
28523;SDS011;15734;50.904;6.922;2023-12-04T09:06:34;26.40;;;11.80;;
28523;SDS011;15734;50.904;6.922;2023-12-04T09:08:59;27.52;;;12.15;;
28523;SDS011;15734;50.904;6.922;2023-12-04T09:11:25;24.75;;;12.43;;
28523;SDS011;15734;50.904;6.922;2023-12-04T09:13:50;26.42;;;12.82;;
28523;SDS011;15734;50.904;6.922;2023-12-04T09:16:16;30.58;;;12.27;;
28523;SDS011;15734;50.904;6.922;2023-12-04T09:18:42;27.30;;;12.52;;
28523;SDS011;15734;50.904;6.922;2023-12-04T09:21:07;26.73;;;12.60;;
28523;SDS011;15734;50.904;6.922;2023-12-04T09:23:34;27.08;;;12.40;;
28523;SDS011;15734;50.904;6.922;2023-12-04T09:26:00;27.23;;;12.50;;
28523;SDS011;15734;50.904;6.922;2023-12-04T09:28:25;27.60;;;12.32;;
28523;SDS011;15734;50.904;6.922;2023-12-04T09:30:51;29.50;;;12.60;;
28523;SDS011;15734;50.904;6.922;2023-12-04T09:33:16;27.73;;;11.80;;
28523;SDS011;15734;50.904;6.922;2023-12-04T09:35:42;26.38;;;12.10;;
28523;SDS011;15734;50.904;6.922;2023-12-04T09:38:07;24.63;;;12.35;;
28523;SDS011;15734;50.904;6.922;2023-12-04T09:40:33;29.83;;;12.85;;
28523;SDS011;15734;50.904;6.922;2023-12-04T09:42:59;26.15;;;11.82;;
28523;SDS011;15734;50.904;6.922;2023-12-04T09:45:24;26.67;;;12.18;;
28523;SDS011;15734;50.904;6.922;2023-12-04T09:47:51;27.83;;;11.50;;
28523;SDS011;15734;50.904;6.922;2023-12-04T09:50:17;24.45;;;11.05;;
28523;SDS011;15734;50.904;6.922;2023-12-04T09:52:46;28.55;;;11.63;;
28523;SDS011;15734;50.904;6.922;2023-12-04T09:55:15;23.45;;;11.60;;
28523;SDS011;15734;50.904;6.922;2023-12-04T09:57:41;26.33;;;11.43;;
28523;SDS011;15734;50.904;6.922;2023-12-04T10:00:07;22.13;;;11.38;;
28523;SDS011;15734;50.904;6.922;2023-12-04T10:02:35;26.92;;;11.02;;
28523;SDS011;15734;50.904;6.922;2023-12-04T10:05:02;25.75;;;11.15;;
28523;SDS011;15734;50.904;6.922;2023-12-04T10:07:30;30.48;;;12.13;;
28523;SDS011;15734;50.904;6.922;2023-12-04T10:09:55;25.08;;;11.40;;
28523;SDS011;15734;50.904;6.922;2023-12-04T10:12:21;26.98;;;11.43;;
28523;SDS011;15734;50.904;6.922;2023-12-04T10:17:35;24.58;;;11.25;;
28523;SDS011;15734;50.904;6.922;2023-12-04T10:20:08;27.30;;;10.32;;
28523;SDS011;15734;50.904;6.922;2023-12-04T10:22:51;27.17;;;10.70;;
28523;SDS011;15734;50.904;6.922;2023-12-04T10:25:18;23.08;;;10.63;;
28523;SDS011;15734;50.904;6.922;2023-12-04T10:27:44;20.10;;;10.95;;
28523;SDS011;15734;50.904;6.922;2023-12-04T10:30:21;27.35;;;11.00;;
28523;SDS011;15734;50.904;6.922;2023-12-04T10:32:47;24.55;;;11.02;;
28523;SDS011;15734;50.904;6.922;2023-12-04T10:35:13;25.15;;;10.40;;
28523;SDS011;15734;50.904;6.922;2023-12-04T10:37:39;19.80;;;9.98;;
28523;SDS011;15734;50.904;6.922;2023-12-04T10:40:05;26.05;;;11.32;;
28523;SDS011;15734;50.904;6.922;2023-12-04T10:42:33;24.58;;;10.82;;
28523;SDS011;15734;50.904;6.922;2023-12-04T10:44:59;23.67;;;10.38;;
28523;SDS011;15734;50.904;6.922;2023-12-04T10:47:26;24.23;;;10.23;;
28523;SDS011;15734;50.904;6.922;2023-12-04T10:49:53;26.25;;;11.88;;
28523;SDS011;15734;50.904;6.922;2023-12-04T10:52:19;24.73;;;11.32;;
28523;SDS011;15734;50.904;6.922;2023-12-04T10:54:46;19.65;;;10.07;;
28523;SDS011;15734;50.904;6.922;2023-12-04T10:57:12;25.35;;;10.48;;
28523;SDS011;15734;50.904;6.922;2023-12-04T10:59:47;18.30;;;9.32;;
28523;SDS011;15734;50.904;6.922;2023-12-04T11:02:18;23.65;;;11.02;;
28523;SDS011;15734;50.904;6.922;2023-12-04T11:04:47;19.73;;;8.85;;
28523;SDS011;15734;50.904;6.922;2023-12-04T11:07:16;21.05;;;10.07;;
28523;SDS011;15734;50.904;6.922;2023-12-04T11:09:44;21.73;;;9.65;;
28523;SDS011;15734;50.904;6.922;2023-12-04T11:12:14;26.40;;;9.68;;
28523;SDS011;15734;50.904;6.922;2023-12-04T11:14:46;24.58;;;10.55;;
28523;SDS011;15734;50.904;6.922;2023-12-04T11:17:18;24.38;;;9.93;;
28523;SDS011;15734;50.904;6.922;2023-12-04T11:22:32;22.33;;;10.63;;
28523;SDS011;15734;50.904;6.922;2023-12-04T11:25:00;18.38;;;9.73;;
28523;SDS011;15734;50.904;6.922;2023-12-04T11:27:30;20.55;;;9.48;;
28523;SDS011;15734;50.904;6.922;2023-12-04T11:29:57;26.95;;;11.55;;
28523;SDS011;15734;50.904;6.922;2023-12-04T11:32:24;21.90;;;10.35;;
28523;SDS011;15734;50.904;6.922;2023-12-04T11:34:55;25.95;;;11.27;;
28523;SDS011;15734;50.904;6.922;2023-12-04T11:37:24;25.60;;;11.48;;
28523;SDS011;15734;50.904;6.922;2023-12-04T11:39:50;24.50;;;11.70;;
28523;SDS011;15734;50.904;6.922;2023-12-04T11:42:21;29.25;;;12.38;;
28523;SDS011;15734;50.904;6.922;2023-12-04T11:44:48;24.35;;;11.98;;
28523;SDS011;15734;50.904;6.922;2023-12-04T11:47:15;23.92;;;11.00;;
28523;SDS011;15734;50.904;6.922;2023-12-04T11:49:40;28.05;;;12.32;;
28523;SDS011;15734;50.904;6.922;2023-12-04T11:52:06;27.40;;;12.38;;
28523;SDS011;15734;50.904;6.922;2023-12-04T11:54:55;23.90;;;11.70;;
28523;SDS011;15734;50.904;6.922;2023-12-04T11:57:25;23.25;;;10.93;;
28523;SDS011;15734;50.904;6.922;2023-12-04T11:59:51;28.20;;;11.65;;
28523;SDS011;15734;50.904;6.922;2023-12-04T12:02:18;25.40;;;12.55;;
28523;SDS011;15734;50.904;6.922;2023-12-04T12:04:45;27.25;;;12.68;;
28523;SDS011;15734;50.904;6.922;2023-12-04T12:07:11;24.15;;;11.45;;
28523;SDS011;15734;50.904;6.922;2023-12-04T12:09:37;28.73;;;12.55;;
28523;SDS011;15734;50.904;6.922;2023-12-04T12:12:04;26.60;;;11.82;;
28523;SDS011;15734;50.904;6.922;2023-12-04T12:14:29;30.35;;;12.93;;
28523;SDS011;15734;50.904;6.922;2023-12-04T12:16:57;24.17;;;12.30;;
28523;SDS011;15734;50.904;6.922;2023-12-04T12:19:25;31.23;;;13.32;;
28523;SDS011;15734;50.904;6.922;2023-12-04T12:21:50;30.98;;;12.85;;
28523;SDS011;15734;50.904;6.922;2023-12-04T12:24:16;23.15;;;11.68;;
28523;SDS011;15734;50.904;6.922;2023-12-04T12:26:43;27.35;;;11.75;;
28523;SDS011;15734;50.904;6.922;2023-12-04T12:29:10;32.47;;;13.57;;
28523;SDS011;15734;50.904;6.922;2023-12-04T12:31:36;30.40;;;13.55;;
28523;SDS011;15734;50.904;6.922;2023-12-04T12:34:02;31.02;;;12.40;;
28523;SDS011;15734;50.904;6.922;2023-12-04T12:36:28;29.23;;;12.88;;
28523;SDS011;15734;50.904;6.922;2023-12-04T12:38:54;23.23;;;12.05;;
28523;SDS011;15734;50.904;6.922;2023-12-04T12:41:19;27.48;;;13.15;;
28523;SDS011;15734;50.904;6.922;2023-12-04T12:43:45;30.05;;;12.90;;
28523;SDS011;15734;50.904;6.922;2023-12-04T12:46:12;25.42;;;12.48;;
28523;SDS011;15734;50.904;6.922;2023-12-04T12:48:38;24.48;;;12.07;;
28523;SDS011;15734;50.904;6.922;2023-12-04T12:51:04;28.83;;;11.68;;
28523;SDS011;15734;50.904;6.922;2023-12-04T12:53:33;33.42;;;12.38;;
28523;SDS011;15734;50.904;6.922;2023-12-04T12:56:00;26.90;;;12.25;;
28523;SDS011;15734;50.904;6.922;2023-12-04T12:58:26;24.88;;;11.90;;
28523;SDS011;15734;50.904;6.922;2023-12-04T13:00:52;24.23;;;11.07;;
28523;SDS011;15734;50.904;6.922;2023-12-04T13:03:18;24.95;;;11.23;;
28523;SDS011;15734;50.904;6.922;2023-12-04T13:05:44;22.98;;;11.38;;
28523;SDS011;15734;50.904;6.922;2023-12-04T13:08:10;29.42;;;11.07;;
28523;SDS011;15734;50.904;6.922;2023-12-04T13:10:40;25.52;;;11.35;;
28523;SDS011;15734;50.904;6.922;2023-12-04T13:13:12;25.35;;;10.65;;
28523;SDS011;15734;50.904;6.922;2023-12-04T13:15:38;25.15;;;11.13;;
28523;SDS011;15734;50.904;6.922;2023-12-04T13:18:06;24.27;;;11.85;;
28523;SDS011;15734;50.904;6.922;2023-12-04T13:20:32;25.83;;;12.93;;
28523;SDS011;15734;50.904;6.922;2023-12-04T13:22:57;25.45;;;11.90;;
28523;SDS011;15734;50.904;6.922;2023-12-04T13:25:23;27.92;;;12.32;;
28523;SDS011;15734;50.904;6.922;2023-12-04T13:27:48;28.13;;;12.38;;
28523;SDS011;15734;50.904;6.922;2023-12-04T13:30:14;25.80;;;12.35;;
28523;SDS011;15734;50.904;6.922;2023-12-04T13:32:39;26.45;;;12.70;;
28523;SDS011;15734;50.904;6.922;2023-12-04T13:35:05;25.05;;;11.80;;
28523;SDS011;15734;50.904;6.922;2023-12-04T13:37:33;31.45;;;12.50;;
28523;SDS011;15734;50.904;6.922;2023-12-04T13:40:01;28.05;;;12.93;;
28523;SDS011;15734;50.904;6.922;2023-12-04T13:42:37;28.48;;;12.65;;
28523;SDS011;15734;50.904;6.922;2023-12-04T13:45:22;22.73;;;11.32;;
28523;SDS011;15734;50.904;6.922;2023-12-04T13:47:48;27.75;;;12.23;;
28523;SDS011;15734;50.904;6.922;2023-12-04T13:50:14;27.75;;;12.98;;
28523;SDS011;15734;50.904;6.922;2023-12-04T13:52:40;28.63;;;11.25;;
28523;SDS011;15734;50.904;6.922;2023-12-04T13:55:08;25.40;;;12.02;;
28523;SDS011;15734;50.904;6.922;2023-12-04T13:57:45;25.92;;;11.85;;
28523;SDS011;15734;50.904;6.922;2023-12-04T14:00:35;25.98;;;11.18;;
28523;SDS011;15734;50.904;6.922;2023-12-04T14:03:02;22.42;;;10.60;;
28523;SDS011;15734;50.904;6.922;2023-12-04T14:05:32;26.05;;;12.35;;
28523;SDS011;15734;50.904;6.922;2023-12-04T14:07:59;27.08;;;11.68;;
28523;SDS011;15734;50.904;6.922;2023-12-04T14:10:25;23.55;;;10.82;;
28523;SDS011;15734;50.904;6.922;2023-12-04T14:12:51;24.42;;;10.45;;
28523;SDS011;15734;50.904;6.922;2023-12-04T14:15:17;23.77;;;11.40;;
28523;SDS011;15734;50.904;6.922;2023-12-04T14:17:43;24.70;;;11.55;;
28523;SDS011;15734;50.904;6.922;2023-12-04T14:20:11;23.83;;;11.93;;
28523;SDS011;15734;50.904;6.922;2023-12-04T14:22:41;27.58;;;11.75;;
28523;SDS011;15734;50.904;6.922;2023-12-04T14:25:08;29.08;;;12.35;;